Elberta, UT

7:22 PM MDT on August 21, 2014 (GMT -0600)
Heber | Change Station
CLOSE
Current Station
Airport
Location: Heber,
Elevation: 5636 ft
Nearby Weather Stations

Elev 5636 ft 40.48 °N, 111.43 °W | Updated 7 minutes ago

Scattered Clouds
Scattered Clouds
72 °F
Feels Like 72 °F
N
10
Wind Variable Wind from North

Today
High -- | Low -- °F
--% Chance of Precip.
Yesterday
High -- | Low -- °F
Precip. -- in
6:45 AM 8:16 PM
Waning Crescent, 11% visible
Pressure 30.10 in
Visibility 10.0 miles
Clouds Scattered Clouds 12000 ft
Dew Point 45 °F
Humidity 38%
Rainfall 0.00 in
Snow Depth Not available.
UV 0 out of 12
Pollen 7.80 out of 12
Air Quality Not available.
Flu Activity Not available.
METAR K36U 220115Z AUTO 01009KT 10SM SCT120 22/07 A3010 RMK AO2

More Conditions Fewer Conditions

Pressure 30.10 in
Visibility 10.0 miles
Clouds Scattered Clouds 12000 ft
Dew Point 45 °F
Humidity 38%
Rainfall 0.00 in
Snow Depth Not available.
UV 0 out of 12
Pollen 7.80 out of 12
Air Quality Not available.
Flu Activity Not available.
METAR K36U 220115Z AUTO 01009KT 10SM SCT120 22/07 A3010 RMK AO2

More Conditions Fewer Conditions

Nowcast | as of 6:05 PM MDT on August 21, 2014

Scattered showers and isolated thunderstorms will continue to develop over portions of northern Utah and southwest Wyoming this evening. The strongest storms at 600 PM were located across northwest Box Elder County...and just southwest of Rockport Reservoir. Brief heavy rain...small hail...gusty winds and dangerous lightning may accompany some storms.

×

10-Day Weather Forecast

Almanac

Astronomy

Aug. 21, 2014 Rise Set
Actual Time 6:45 AM MDT 8:16 PM MDT
Civil Twilight 6:16 AM MDT 8:44 PM MDT
Nautical Twilight 5:42 AM MDT 9:19 PM MDT
Astronomical Twilight 5:05 AM MDT 9:55 PM MDT
Moon 3:18 AM MDT (8/21) 5:47 PM MDT (8/21)
Length of Visible Light 14h 28m
Length of Day
13h 31m
Tomorrow will be 2m 25s shorter.
Waning Crescent, 11% of the Moon is Illuminated
Today
Waning Crescent
Aug 25
New
Sep 2
First Quarter
Sep 8
Full
Sep 15
Last Quarter

Today's Extremes

State Highs State Lows

Community

WunderPhotos

Upload Photos

1,746,102 photos uploaded!

Nearby

Snow Depth

Station Depth Elevation
Hardscrabble 0 in 7250 ft
Parrish Creek 0 in 7740 ft
Trial Lake 1 in 9960 ft
Rock Creek 0 in 7900 ft
Pickle Keg 0 in 9600 ft

Earthquake Activity

City Distance Mag. Time & Date
No recent earthquake activity has been reported nearby.
Minimum magnitude displayed is 2.5.

Coastal Water Temperatures

Place Temperature
No Stations Reporting

Nearby Weather Stations